Time;durP1;ratioP1;P1;durP2;ratioP2;P2;SDS_P1;SDS_P2;PMS_P1;PMS_P2;Temp;Humidity;BMP_temperature;BMP_pressure;BME280_temperature;BME280_humidity;BME280_pressure;Samples;Min_cycle;Max_cycle;Signal;HPM_P1;HPM_P2
2023/04/14 00:00:12;;;;;;;1.50;1.25;;;;;;;;;;1047351;28;20377;-22
2023/04/14 00:00:42;;;;;;;2.67;2.10;;;;;;;;;;1047169;28;20035;-21
2023/04/14 00:01:14;;;;;;;3.05;1.42;;;;;;;;;;1047919;28;20440;-20
2023/04/14 00:01:46;;;;;;;3.15;2.30;;;;;;;;;;1047936;28;20028;-23
2023/04/14 00:02:16;;;;;;;2.55;1.95;;;;;;;;;;1046758;28;20472;-22
2023/04/14 00:02:47;;;;;;;2.47;1.60;;;;;;;;;;1047519;28;20058;-22
2023/04/14 00:03:18;;;;;;;3.25;2.10;;;;;;;;;;1047332;28;20056;-22
2023/04/14 00:03:48;;;;;;;7.25;3.65;;;;;;;;;;1047376;28;20033;-23
2023/04/14 00:04:19;;;;;;;5.13;2.22;;;;;;;;;;1048074;28;20392;-20
2023/04/14 00:04:50;;;;;;;3.10;1.35;;;;;;;;;;1048033;28;20555;-20
2023/04/14 00:05:21;;;;;;;3.80;1.98;;;;;;;;;;1046637;28;20028;-21
2023/04/14 00:05:51;;;;;;;1.75;1.65;;;;;;;;;;1047129;28;20032;-21
2023/04/14 00:06:22;;;;;;;4.00;2.60;;;;;;;;;;1047240;28;20032;-19
2023/04/14 00:06:55;;;;;;;6.50;1.20;;;;;;;;;;1047916;28;20198;-20
2023/04/14 00:07:26;;;;;;;3.40;2.78;;;;;;;;;;1046935;28;20016;-23
2023/04/14 00:07:56;;;;;;;2.75;2.40;;;;;;;;;;1048017;28;20064;-22
2023/04/14 00:08:27;;;;;;;1.92;1.40;;;;;;;;;;1047946;28;20025;-23
2023/04/14 00:08:57;;;;;;;2.83;2.40;;;;;;;;;;1046613;28;20115;-23
2023/04/14 00:09:28;;;;;;;5.55;2.03;;;;;;;;;;1047918;28;20115;-23
2023/04/14 00:09:59;;;;;;;8.90;2.90;;;;;;;;;;1047900;28;20027;-20
2023/04/14 00:10:30;;;;;;;1.77;1.50;;;;;;;;;;1047967;28;20035;-21
2023/04/14 00:11:00;;;;;;;4.82;2.90;;;;;;;;;;1047726;28;20032;-23
2023/04/14 00:11:31;;;;;;;10.88;2.80;;;;;;;;;;1047478;28;20420;-22
2023/04/14 00:12:01;;;;;;;7.35;2.33;;;;;;;;;;1047070;28;20109;-21
2023/04/14 00:12:32;;;;;;;5.20;3.10;;;;;;;;;;1047222;28;20059;-23
2023/04/14 00:13:03;;;;;;;5.75;2.92;;;;;;;;;;1047748;28;20028;-23
2023/04/14 00:13:33;;;;;;;2.90;2.22;;;;;;;;;;1047617;28;20103;-23
2023/04/14 00:14:04;;;;;;;5.18;2.78;;;;;;;;;;1047774;28;20024;-20
2023/04/14 00:14:35;;;;;;;6.10;3.45;;;;;;;;;;1047729;28;20035;-22
2023/04/14 00:15:05;;;;;;;5.10;1.38;;;;;;;;;;1047508;28;20035;-23
2023/04/14 00:15:36;;;;;;;2.30;1.23;;;;;;;;;;1046936;28;20028;-22
2023/04/14 00:16:07;;;;;;;2.38;1.17;;;;;;;;;;1047918;28;20071;-21
2023/04/14 00:16:38;;;;;;;1.65;1.20;;;;;;;;;;1047877;28;20468;-21
2023/04/14 00:17:08;;;;;;;1.75;1.38;;;;;;;;;;1046673;28;20035;-19
2023/04/14 00:17:39;;;;;;;1.33;1.08;;;;;;;;;;1047789;28;20051;-21
2023/04/14 00:18:09;;;;;;;1.35;1.25;;;;;;;;;;1047445;28;20115;-19
2023/04/14 00:18:40;;;;;;;2.25;1.08;;;;;;;;;;1046942;28;20051;-23
2023/04/14 00:19:10;;;;;;;9.93;1.00;;;;;;;;;;1047933;28;20059;-21
2023/04/14 00:19:41;;;;;;;2.47;1.75;;;;;;;;;;1047845;28;20028;-23
2023/04/14 00:20:12;;;;;;;2.20;1.45;;;;;;;;;;1048027;28;20058;-20
2023/04/14 00:20:42;;;;;;;1.33;0.90;;;;;;;;;;1047641;28;20020;-23
2023/04/14 00:21:13;;;;;;;3.90;1.33;;;;;;;;;;1047996;28;20021;-22
2023/04/14 00:21:43;;;;;;;1.17;0.95;;;;;;;;;;1047813;28;20074;-22
2023/04/14 00:22:14;;;;;;;3.45;1.38;;;;;;;;;;1048064;28;20016;-20
2023/04/14 00:22:44;;;;;;;1.17;0.70;;;;;;;;;;1047775;28;20459;-21
2023/04/14 00:23:15;;;;;;;4.25;3.15;;;;;;;;;;1047658;28;20028;-22
2023/04/14 00:23:45;;;;;;;1.23;1.00;;;;;;;;;;1047382;28;20075;-21
2023/04/14 00:24:16;;;;;;;1.60;1.15;;;;;;;;;;1047419;28;20012;-24
2023/04/14 00:24:46;;;;;;;1.02;0.50;;;;;;;;;;1047545;28;20021;-23
2023/04/14 00:25:17;;;;;;;3.53;1.80;;;;;;;;;;1047852;28;20031;-23
2023/04/14 00:25:50;;;;;;;5.68;1.60;;;;;;;;;;1047848;28;20097;-23
2023/04/14 00:26:21;;;;;;;7.22;1.35;;;;;;;;;;1047713;28;20545;-20
2023/04/14 00:26:51;;;;;;;1.63;1.15;;;;;;;;;;1047155;28;20082;-22
2023/04/14 00:27:22;;;;;;;2.90;2.70;;;;;;;;;;1046278;28;20027;-21
2023/04/14 00:27:52;;;;;;;2.95;1.90;;;;;;;;;;1047800;28;20452;-21
2023/04/14 00:28:22;;;;;;;8.98;1.25;;;;;;;;;;1048065;28;20024;-23
2023/04/14 00:28:53;;;;;;;2.15;2.03;;;;;;;;;;1047233;28;20034;-22
2023/04/14 00:29:23;;;;;;;5.18;1.58;;;;;;;;;;1046026;28;20111;-23
2023/04/14 00:29:54;;;;;;;2.78;2.00;;;;;;;;;;1047235;28;20032;-22
2023/04/14 00:30:24;;;;;;;1.63;1.00;;;;;;;;;;1047347;28;20055;-20
2023/04/14 00:30:55;;;;;;;1.77;1.20;;;;;;;;;;1045817;28;20074;-23
2023/04/14 00:31:25;;;;;;;2.45;1.85;;;;;;;;;;1047813;28;20028;-21
2023/04/14 00:31:56;;;;;;;1.52;1.25;;;;;;;;;;1047958;28;20032;-19
2023/04/14 00:32:26;;;;;;;8.02;2.67;;;;;;;;;;1047958;28;20602;-22
2023/04/14 00:32:56;;;;;;;2.10;0.90;;;;;;;;;;1047056;28;20060;-22
2023/04/14 00:33:27;;;;;;;4.18;2.30;;;;;;;;;;1047789;28;20020;-20
2023/04/14 00:33:57;;;;;;;3.10;1.25;;;;;;;;;;1048061;28;20029;-23
2023/04/14 00:34:28;;;;;;;5.40;1.45;;;;;;;;;;1048023;28;20090;-23
2023/04/14 00:35:01;;;;;;;1.20;1.02;;;;;;;;;;1047638;28;20024;-20
2023/04/14 00:35:32;;;;;;;2.65;1.05;;;;;;;;;;1046905;28;20504;-23
2023/04/14 00:36:03;;;;;;;1.20;0.95;;;;;;;;;;1047357;28;20033;-21
2023/04/14 00:36:33;;;;;;;4.35;2.10;;;;;;;;;;1047099;28;20567;-20
2023/04/14 00:37:04;;;;;;;3.17;2.17;;;;;;;;;;1047855;28;20537;-22
2023/04/14 00:37:34;;;;;;;1.80;1.50;;;;;;;;;;1047666;28;20295;-22
2023/04/14 00:38:05;;;;;;;0.65;0.60;;;;;;;;;;1047703;28;20036;-24
2023/04/14 00:38:35;;;;;;;1.05;0.82;;;;;;;;;;1047768;28;20111;-21
2023/04/14 00:39:06;;;;;;;3.40;1.90;;;;;;;;;;1047310;28;20118;-20
2023/04/14 00:39:36;;;;;;;2.90;1.60;;;;;;;;;;1046882;28;20020;-20
2023/04/14 00:40:10;;;;;;;1.98;1.80;;;;;;;;;;1048095;28;20032;-20
2023/04/14 00:40:40;;;;;;;2.67;1.88;;;;;;;;;;1047740;28;20023;-21
2023/04/14 00:41:11;;;;;;;1.65;1.55;;;;;;;;;;1047429;28;20033;-23
2023/04/14 00:41:42;;;;;;;3.50;2.30;;;;;;;;;;1047674;28;20471;-21
2023/04/14 00:42:12;;;;;;;2.55;1.15;;;;;;;;;;1046843;28;20044;-21
2023/04/14 00:42:46;;;;;;;3.70;1.88;;;;;;;;;;1047275;28;20031;-22
2023/04/14 00:43:17;;;;;;;3.58;2.47;;;;;;;;;;1047005;28;20055;-23
2023/04/14 00:43:51;;;;;;;5.55;1.23;;;;;;;;;;1046612;28;20034;-22
2023/04/14 00:44:22;;;;;;;6.88;1.52;;;;;;;;;;1046908;28;20466;-23
2023/04/14 00:44:52;;;;;;;1.50;1.40;;;;;;;;;;1047081;28;20035;-21
2023/04/14 00:45:24;;;;;;;0.40;0.32;;;;;;;;;;1046624;28;20550;-21
2023/04/14 00:45:54;;;;;;;2.78;1.80;;;;;;;;;;1046606;28;20047;-19
2023/04/14 00:46:25;;;;;;;4.18;1.02;;;;;;;;;;1047503;28;20079;-22
2023/04/14 00:46:56;;;;;;;4.60;1.80;;;;;;;;;;1047654;28;20020;-23
2023/04/14 00:47:27;;;;;;;1.45;0.98;;;;;;;;;;1046433;28;20028;-22
2023/04/14 00:47:57;;;;;;;4.90;2.30;;;;;;;;;;1042620;28;20505;-23
2023/04/14 00:48:28;;;;;;;0.98;0.77;;;;;;;;;;1042843;28;20064;-20
2023/04/14 00:48:59;;;;;;;1.88;1.20;;;;;;;;;;1043407;28;20029;-20
2023/04/14 00:49:30;;;;;;;1.08;0.98;;;;;;;;;;1043450;28;20052;-21
2023/04/14 00:50:00;;;;;;;1.65;1.35;;;;;;;;;;1047811;28;20029;-22
2023/04/14 00:50:32;;;;;;;6.05;1.95;;;;;;;;;;1046470;28;20029;-22
2023/04/14 00:51:03;;;;;;;1.77;1.17;;;;;;;;;;1046188;28;20017;-22
2023/04/14 00:51:34;;;;;;;3.22;0.90;;;;;;;;;;1046468;28;20024;-20
2023/04/14 00:52:04;;;;;;;3.78;2.33;;;;;;;;;;1038176;28;20017;-21
2023/04/14 00:52:36;;;;;;;0.65;0.65;;;;;;;;;;1038003;28;20480;-23
2023/04/14 00:53:07;;;;;;;1.65;0.82;;;;;;;;;;1034757;28;20057;-23
2023/04/14 00:53:37;;;;;;;1.60;0.98;;;;;;;;;;1035016;28;20137;-21
2023/04/14 00:54:08;;;;;;;3.00;2.20;;;;;;;;;;1037527;28;20148;-20
2023/04/14 00:54:39;;;;;;;1.92;1.35;;;;;;;;;;1038320;28;20123;-22
2023/04/14 00:55:10;;;;;;;1.25;1.00;;;;;;;;;;1042216;28;20124;-23
2023/04/14 00:55:40;;;;;;;0.75;0.70;;;;;;;;;;1045344;28;20388;-22
2023/04/14 00:56:11;;;;;;;12.05;1.55;;;;;;;;;;1046615;28;20028;-23
2023/04/14 00:56:41;;;;;;;2.20;1.95;;;;;;;;;;1047176;28;20446;-23
2023/04/14 00:57:12;;;;;;;2.70;1.30;;;;;;;;;;1046340;28;20074;-23
2023/04/14 00:57:43;;;;;;;1.20;0.77;;;;;;;;;;1047457;28;20497;-21
2023/04/14 00:58:14;;;;;;;7.38;1.90;;;;;;;;;;1046891;28;20089;-23
2023/04/14 00:58:45;;;;;;;1.98;1.55;;;;;;;;;;1047166;28;20024;-23
2023/04/14 00:59:16;;;;;;;1.83;1.20;;;;;;;;;;1046592;28;20167;-22
2023/04/14 00:59:46;;;;;;;4.63;1.25;;;;;;;;;;1046401;28;20441;-23
2023/04/14 01:00:18;;;;;;;3.05;1.27;;;;;;;;;;1046640;28;20399;-21
2023/04/14 01:00:54;;;;;;;0.60;0.60;;;;;;;;;;1047402;28;20024;-22
2023/04/14 01:01:24;;;;;;;2.63;1.13;;;;;;;;;;1047617;28;20499;-20
2023/04/14 01:01:55;;;;;;;3.65;2.25;;;;;;;;;;1046656;28;20028;-21
2023/04/14 01:02:26;;;;;;;6.95;3.28;;;;;;;;;;1048232;28;20073;-21
2023/04/14 01:02:56;;;;;;;3.75;2.42;;;;;;;;;;1046491;28;20119;-22
2023/04/14 01:03:27;;;;;;;21.05;8.30;;;;;;;;;;1043752;28;20039;-23
2023/04/14 01:03:57;;;;;;;19.80;9.20;;;;;;;;;;1047443;28;20484;-19
2023/04/14 01:04:27;;;;;;;16.92;9.30;;;;;;;;;;1046865;28;20073;-22
2023/04/14 01:04:58;;;;;;;16.13;8.27;;;;;;;;;;1047101;28;20056;-21
2023/04/14 01:05:28;;;;;;;10.32;5.95;;;;;;;;;;1046220;28;20078;-21
2023/04/14 01:05:59;;;;;;;11.45;7.43;;;;;;;;;;1045801;28;20028;-21
2023/04/14 01:06:30;;;;;;;16.25;8.38;;;;;;;;;;1047200;28;20035;-22
2023/04/14 01:07:01;;;;;;;11.02;6.07;;;;;;;;;;1046791;28;20499;-19
2023/04/14 01:07:32;;;;;;;11.80;5.95;;;;;;;;;;1047515;28;20024;-21
2023/04/14 01:08:03;;;;;;;24.13;8.35;;;;;;;;;;1043196;28;20066;-21
2023/04/14 01:08:33;;;;;;;23.38;11.30;;;;;;;;;;1043461;28;20471;-23
2023/04/14 01:09:05;;;;;;;32.67;16.50;;;;;;;;;;1043222;28;20060;-23
2023/04/14 01:09:36;;;;;;;77.70;29.48;;;;;;;;;;1043119;28;20021;-23
2023/04/14 01:10:06;;;;;;;59.28;26.85;;;;;;;;;;1047565;28;20033;-23
2023/04/14 01:10:40;;;;;;;29.50;11.68;;;;;;;;;;1047515;28;20035;-23
2023/04/14 01:11:16;;;;;;;10.48;4.75;;;;;;;;;;1046369;28;20395;-22
2023/04/14 01:12:06;;;;;;;9.23;2.10;;;;;;;;;;1046612;28;20070;-22
2023/04/14 01:12:39;;;;;;;2.28;1.45;;;;;;;;;;1046307;28;20032;-20
2023/04/14 01:13:22;;;;;;;8.80;1.65;;;;;;;;;;1047048;28;20516;-21
2023/04/14 01:14:00;;;;;;;4.15;2.60;;;;;;;;;;1047207;28;20380;-21
2023/04/14 01:14:40;;;;;;;18.02;8.25;;;;;;;;;;1047187;28;20510;-19
2023/04/14 01:15:17;;;;;;;18.35;5.47;;;;;;;;;;1046760;28;20029;-22
2023/04/14 01:15:58;;;;;;;4.70;2.08;;;;;;;;;;1047903;28;20029;-24
2023/04/14 01:16:33;;;;;;;12.07;2.90;;;;;;;;;;1047714;28;20016;-23
2023/04/14 01:17:24;;;;;;;11.15;1.30;;;;;;;;;;1046927;28;20403;-21
2023/04/14 01:18:33;;;;;;;3.00;2.25;;;;;;;;;;1030985;28;20139;-22
2023/04/14 01:19:22;;;;;;;15.25;2.17;;;;;;;;;;1026797;28;20797;-23
2023/04/14 01:20:07;;;;;;;3.63;2.78;;;;;;;;;;1027957;28;20030;-21
2023/04/14 01:20:37;;;;;;;5.57;2.20;;;;;;;;;;1029259;28;20052;-23
2023/04/14 01:21:17;;;;;;;10.77;2.63;;;;;;;;;;1030350;28;20026;-23
2023/04/14 01:21:51;;;;;;;3.63;3.28;;;;;;;;;;1030167;28;20383;-22
2023/04/14 01:22:25;;;;;;;10.13;1.50;;;;;;;;;;1028754;28;20022;-19
2023/04/14 01:23:02;;;;;;;8.73;1.67;;;;;;;;;;1027824;28;20038;-22
2023/04/14 01:23:38;;;;;;;6.53;1.75;;;;;;;;;;1029755;28;20022;-22
2023/04/14 01:24:27;;;;;;;1.95;1.85;;;;;;;;;;1029554;28;20311;-21
2023/04/14 01:24:58;;;;;;;4.93;1.83;;;;;;;;;;1036063;28;20398;-23
2023/04/14 01:25:47;;;;;;;15.88;1.95;;;;;;;;;;1044866;28;20040;-20
2023/04/14 01:26:19;;;;;;;2.53;1.88;;;;;;;;;;1047601;28;20047;-22
2023/04/14 01:26:54;;;;;;;3.42;1.48;;;;;;;;;;1045291;28;20085;-19
2023/04/14 01:27:39;;;;;;;8.02;3.00;;;;;;;;;;1042505;28;20110;-20
2023/04/14 01:28:10;;;;;;;1.35;0.98;;;;;;;;;;1044345;28;20029;-23
2023/04/14 01:28:42;;;;;;;9.98;1.58;;;;;;;;;;1040725;28;20092;-24
2023/04/14 01:29:23;;;;;;;11.15;2.13;;;;;;;;;;1039059;28;20502;-24
2023/04/14 01:30:06;;;;;;;5.65;3.35;;;;;;;;;;1039023;28;20472;-19
2023/04/14 01:30:58;;;;;;;11.90;1.95;;;;;;;;;;1045497;28;20724;-23
2023/04/14 01:31:30;;;;;;;2.45;1.13;;;;;;;;;;1044702;28;20089;-21
2023/04/14 01:32:09;;;;;;;11.95;1.95;;;;;;;;;;1045016;28;20033;-21
2023/04/14 01:32:43;;;;;;;4.55;1.73;;;;;;;;;;1046378;28;21529;-22
2023/04/14 01:33:16;;;;;;;2.92;1.58;;;;;;;;;;1045536;28;20037;-24
2023/04/14 01:33:50;;;;;;;2.97;1.85;;;;;;;;;;1044667;28;20480;-24
2023/04/14 01:34:21;;;;;;;4.80;2.00;;;;;;;;;;1044725;28;20024;-22
2023/04/14 01:34:51;;;;;;;5.22;1.92;;;;;;;;;;1043715;28;20032;-24
2023/04/14 01:35:31;;;;;;;3.58;2.13;;;;;;;;;;1042685;28;20100;-22
2023/04/14 01:36:04;;;;;;;7.10;1.80;;;;;;;;;;1043334;28;20033;-20
2023/04/14 01:36:55;;;;;;;5.20;2.05;;;;;;;;;;1047353;28;20155;-18
2023/04/14 01:37:32;;;;;;;4.07;2.42;;;;;;;;;;1038318;28;20897;-20
2023/04/14 01:38:07;;;;;;;6.70;3.45;;;;;;;;;;1041761;28;20040;-22
2023/04/14 01:38:39;;;;;;;12.07;1.98;;;;;;;;;;1040864;28;20110;-20
2023/04/14 01:39:13;;;;;;;1.38;1.17;;;;;;;;;;1042511;28;20037;-20
2023/04/14 01:39:55;;;;;;;2.03;1.80;;;;;;;;;;1042701;28;20401;-23
2023/04/14 01:40:31;;;;;;;1.30;0.65;;;;;;;;;;1036346;28;20029;-22
2023/04/14 01:41:04;;;;;;;2.03;1.27;;;;;;;;;;1038347;28;20057;-24
2023/04/14 01:41:38;;;;;;;2.08;1.60;;;;;;;;;;1041692;28;20050;-22
2023/04/14 01:42:10;;;;;;;11.43;3.22;;;;;;;;;;1042319;28;20025;-24
2023/04/14 01:42:43;;;;;;;3.17;1.40;;;;;;;;;;1046099;28;20122;-22
2023/04/14 01:43:17;;;;;;;3.20;1.02;;;;;;;;;;1042334;28;20024;-23
2023/04/14 01:43:50;;;;;;;18.38;1.40;;;;;;;;;;1041077;28;21172;-23
2023/04/14 01:44:22;;;;;;;1.38;1.13;;;;;;;;;;1041024;28;20115;-24
2023/04/14 01:44:55;;;;;;;2.22;1.45;;;;;;;;;;1040604;28;20156;-23
2023/04/14 01:45:28;;;;;;;6.15;2.15;;;;;;;;;;1042808;28;20021;-21
2023/04/14 01:46:06;;;;;;;1.95;0.80;;;;;;;;;;1043756;28;20021;-24
2023/04/14 01:46:37;;;;;;;1.88;0.85;;;;;;;;;;1046094;28;20028;-25
2023/04/14 01:47:09;;;;;;;3.78;1.02;;;;;;;;;;1041168;28;20419;-22
2023/04/14 01:47:41;;;;;;;0.95;0.75;;;;;;;;;;1041108;28;20488;-24
2023/04/14 01:48:11;;;;;;;1.38;0.75;;;;;;;;;;1041185;28;20080;-22
2023/04/14 01:48:42;;;;;;;2.35;1.10;;;;;;;;;;1042220;28;20032;-25
2023/04/14 01:49:14;;;;;;;5.15;1.88;;;;;;;;;;1045585;28;20462;-25
2023/04/14 01:49:46;;;;;;;3.60;1.20;;;;;;;;;;1045649;28;20031;-25
2023/04/14 01:50:19;;;;;;;1.23;1.05;;;;;;;;;;1043631;28;20024;-25
2023/04/14 01:50:50;;;;;;;6.88;0.82;;;;;;;;;;1043796;28;20028;-22
2023/04/14 01:51:21;;;;;;;4.25;2.15;;;;;;;;;;1045286;28;20789;-24
2023/04/14 01:51:54;;;;;;;6.68;1.17;;;;;;;;;;1045669;28;20150;-21
2023/04/14 01:52:26;;;;;;;3.22;2.10;;;;;;;;;;1045512;28;20033;-23
2023/04/14 01:52:59;;;;;;;0.88;0.73;;;;;;;;;;1042045;28;20116;-23
2023/04/14 01:53:31;;;;;;;2.05;1.13;;;;;;;;;;1041670;28;20033;-24
2023/04/14 01:54:03;;;;;;;1.30;1.20;;;;;;;;;;1042205;28;20074;-24
2023/04/14 01:54:35;;;;;;;1.98;1.15;;;;;;;;;;1042721;28;20056;-21
2023/04/14 01:55:08;;;;;;;7.55;4.00;;;;;;;;;;1047219;28;20059;-25
2023/04/14 01:55:40;;;;;;;2.03;0.95;;;;;;;;;;1043154;28;20052;-24
2023/04/14 01:56:13;;;;;;;4.97;2.08;;;;;;;;;;1042688;28;20032;-23
2023/04/14 01:56:46;;;;;;;36.75;2.83;;;;;;;;;;1035725;28;20025;-25
2023/04/14 01:57:19;;;;;;;5.63;2.60;;;;;;;;;;1035626;28;20555;-25
2023/04/14 01:57:52;;;;;;;1.55;0.82;;;;;;;;;;1038582;28;20022;-24
2023/04/14 01:58:24;;;;;;;4.70;1.17;;;;;;;;;;1041256;28;20385;-24
2023/04/14 01:58:56;;;;;;;0.65;0.65;;;;;;;;;;1045302;28;20647;-23
2023/04/14 01:59:27;;;;;;;2.50;1.58;;;;;;;;;;1047793;28;20033;-21
2023/04/14 01:59:58;;;;;;;4.78;1.40;;;;;;;;;;1046922;28;20027;-22
2023/04/14 02:00:29;;;;;;;10.55;1.38;;;;;;;;;;1042161;28;20024;-24
2023/04/14 02:00:59;;;;;;;1.92;1.40;;;;;;;;;;1039869;28;20038;-25
2023/04/14 02:01:31;;;;;;;4.70;1.23;;;;;;;;;;1042221;28;20029;-24
2023/04/14 02:02:02;;;;;;;6.05;2.33;;;;;;;;;;1042345;28;20027;-22
2023/04/14 02:02:33;;;;;;;1.25;1.15;;;;;;;;;;1042570;28;20036;-21
2023/04/14 02:03:05;;;;;;;4.90;1.73;;;;;;;;;;1042745;28;20037;-24
2023/04/14 02:03:37;;;;;;;4.70;2.85;;;;;;;;;;1042324;28;20025;-24
2023/04/14 02:04:08;;;;;;;1.38;0.68;;;;;;;;;;1042616;28;20075;-23
2023/04/14 02:04:39;;;;;;;2.67;1.60;;;;;;;;;;1047627;28;20028;-24
2023/04/14 02:05:11;;;;;;;13.45;3.35;;;;;;;;;;1048202;28;20032;-23
2023/04/14 02:05:42;;;;;;;7.60;2.22;;;;;;;;;;1047393;28;20027;-25
2023/04/14 02:06:13;;;;;;;5.35;0.90;;;;;;;;;;1041168;28;20410;-23
2023/04/14 02:06:44;;;;;;;1.90;1.58;;;;;;;;;;1041867;28;20020;-23
2023/04/14 02:07:17;;;;;;;3.08;2.10;;;;;;;;;;1038768;28;20099;-25
2023/04/14 02:07:50;;;;;;;2.58;1.45;;;;;;;;;;1035139;28;20824;-23
2023/04/14 02:08:21;;;;;;;7.88;2.47;;;;;;;;;;1038344;28;20032;-24
2023/04/14 02:08:52;;;;;;;4.75;1.70;;;;;;;;;;1039543;28;20025;-25
2023/04/14 02:09:24;;;;;;;1.73;1.50;;;;;;;;;;1043760;28;20020;-23
2023/04/14 02:09:55;;;;;;;1.52;1.30;;;;;;;;;;1047189;28;20029;-25
2023/04/14 02:10:26;;;;;;;2.55;2.10;;;;;;;;;;1047259;28;20036;-25
2023/04/14 02:10:58;;;;;;;2.10;1.88;;;;;;;;;;1047206;28;20064;-23
2023/04/14 02:11:29;;;;;;;2.33;1.30;;;;;;;;;;1046862;28;20028;-22
2023/04/14 02:12:00;;;;;;;7.13;1.83;;;;;;;;;;1046628;28;20016;-22
2023/04/14 02:12:31;;;;;;;1.88;1.45;;;;;;;;;;1041594;28;20122;-24
2023/04/14 02:13:02;;;;;;;3.10;1.30;;;;;;;;;;1041596;28;20028;-24
2023/04/14 02:13:33;;;;;;;3.90;1.80;;;;;;;;;;1043078;28;20089;-24
2023/04/14 02:14:05;;;;;;;2.00;1.45;;;;;;;;;;1044066;28;20033;-22
2023/04/14 02:14:36;;;;;;;2.35;0.80;;;;;;;;;;1047877;28;20081;-22
2023/04/14 02:15:12;;;;;;;7.00;1.75;;;;;;;;;;1046914;28;20124;-23
2023/04/14 02:15:43;;;;;;;11.07;1.92;;;;;;;;;;1045788;28;20064;-25
2023/04/14 02:16:15;;;;;;;4.00;2.47;;;;;;;;;;1041003;28;20132;-22
2023/04/14 02:16:47;;;;;;;8.60;1.73;;;;;;;;;;1042051;28;20042;-22
2023/04/14 02:17:18;;;;;;;5.03;1.85;;;;;;;;;;1041078;28;20036;-24
2023/04/14 02:17:49;;;;;;;1.50;0.93;;;;;;;;;;1043586;28;20511;-23
2023/04/14 02:18:22;;;;;;;1.98;1.40;;;;;;;;;;1044312;28;20122;-24
2023/04/14 02:18:52;;;;;;;2.15;1.75;;;;;;;;;;1047580;28;20032;-25
2023/04/14 02:19:24;;;;;;;1.88;0.85;;;;;;;;;;1045896;28;20063;-21
2023/04/14 02:19:54;;;;;;;8.05;1.85;;;;;;;;;;1046756;28;20382;-22
2023/04/14 02:20:26;;;;;;;1.35;1.25;;;;;;;;;;1042385;28;20142;-24
2023/04/14 02:20:58;;;;;;;1.67;1.23;;;;;;;;;;1040660;28;20479;-20
2023/04/14 02:21:31;;;;;;;2.80;1.92;;;;;;;;;;1041135;28;20041;-22
2023/04/14 02:22:02;;;;;;;1.50;0.55;;;;;;;;;;1038776;28;20095;-24
2023/04/14 02:22:33;;;;;;;3.08;1.50;;;;;;;;;;1042643;28;20129;-20
2023/04/14 02:23:03;;;;;;;5.70;2.47;;;;;;;;;;1038036;28;20036;-22
2023/04/14 02:23:34;;;;;;;8.13;1.60;;;;;;;;;;1038570;28;20060;-24
2023/04/14 02:24:04;;;;;;;0.40;0.40;;;;;;;;;;1037530;28;20029;-23
2023/04/14 02:24:35;;;;;;;1.02;0.90;;;;;;;;;;1038234;28;20636;-20
2023/04/14 02:25:06;;;;;;;2.15;1.23;;;;;;;;;;1040655;28;20400;-24
2023/04/14 02:25:39;;;;;;;1.15;1.08;;;;;;;;;;1040307;28;20556;-23
2023/04/14 02:26:12;;;;;;;0.80;0.77;;;;;;;;;;1043098;28;20037;-24
2023/04/14 02:26:58;;;;;;;2.17;1.48;;;;;;;;;;1047006;28;20360;-25
2023/04/14 02:27:36;;;;;;;2.97;1.35;;;;;;;;;;1045958;28;20033;-25
2023/04/14 02:28:09;;;;;;;5.85;1.25;;;;;;;;;;1045484;28;20475;-23
2023/04/14 02:28:50;;;;;;;1.02;0.45;;;;;;;;;;1042791;28;20029;-25
2023/04/14 02:29:21;;;;;;;3.90;1.85;;;;;;;;;;1039791;28;20465;-20
2023/04/14 02:29:53;;;;;;;1.42;1.27;;;;;;;;;;1040942;28;20075;-25
2023/04/14 02:30:29;;;;;;;6.68;2.53;;;;;;;;;;1042862;28;20044;-23
2023/04/14 02:31:04;;;;;;;6.28;1.70;;;;;;;;;;1043448;28;20045;-24
2023/04/14 02:31:37;;;;;;;4.20;1.70;;;;;;;;;;1043773;28;20041;-23
2023/04/14 02:32:11;;;;;;;9.55;2.50;;;;;;;;;;1045154;28;20023;-25
2023/04/14 02:32:46;;;;;;;5.00;1.95;;;;;;;;;;1040093;28;20391;-24
2023/04/14 02:33:21;;;;;;;6.88;1.67;;;;;;;;;;1036799;28;20032;-24
2023/04/14 02:33:52;;;;;;;4.35;2.42;;;;;;;;;;1036119;28;20079;-22
2023/04/14 02:34:26;;;;;;;1.10;0.75;;;;;;;;;;1037081;28;20503;-23
2023/04/14 02:35:00;;;;;;;4.75;1.20;;;;;;;;;;1043121;28;20021;-23
2023/04/14 02:35:37;;;;;;;5.45;2.85;;;;;;;;;;1039078;28;20147;-23
2023/04/14 02:36:19;;;;;;;9.68;1.40;;;;;;;;;;1039995;28;20373;-22
2023/04/14 02:36:53;;;;;;;3.97;1.48;;;;;;;;;;1040333;28;20123;-23
2023/04/14 02:37:33;;;;;;;8.63;2.17;;;;;;;;;;1037188;28;20037;-23
2023/04/14 02:38:20;;;;;;;1.33;1.00;;;;;;;;;;1038051;28;20033;-22
2023/04/14 02:39:03;;;;;;;7.47;2.05;;;;;;;;;;1041288;28;20064;-23
2023/04/14 02:39:42;;;;;;;1.98;1.30;;;;;;;;;;1039486;28;20899;-24
2023/04/14 02:40:25;;;;;;;1.45;0.60;;;;;;;;;;1040478;28;20531;-23
2023/04/14 02:41:00;;;;;;;4.57;1.17;;;;;;;;;;1039055;28;20119;-23
2023/04/14 02:41:33;;;;;;;4.50;1.73;;;;;;;;;;1037373;28;20506;-24
2023/04/14 02:42:12;;;;;;;6.45;1.58;;;;;;;;;;1037557;28;20028;-25
2023/04/14 02:42:46;;;;;;;7.78;2.13;;;;;;;;;;1037293;28;20115;-26
2023/04/14 02:43:22;;;;;;;4.55;1.73;;;;;;;;;;1040586;28;20128;-23
2023/04/14 02:44:26;;;;;;;1.08;0.98;;;;;;;;;;1045660;28;20029;-24
2023/04/14 02:45:05;;;;;;;4.13;0.70;;;;;;;;;;1020497;28;20073;-24
2023/04/14 02:45:37;;;;;;;8.98;2.45;;;;;;;;;;1020377;29;20055;-25
2023/04/14 02:46:08;;;;;;;7.55;5.57;;;;;;;;;;1035065;28;20057;-25
2023/04/14 02:46:45;;;;;;;1.33;0.85;;;;;;;;;;1042470;28;20155;-24
2023/04/14 02:47:23;;;;;;;2.75;1.63;;;;;;;;;;1044149;28;20020;-23
2023/04/14 02:47:55;;;;;;;12.02;2.72;;;;;;;;;;1043440;28;20028;-22
2023/04/14 02:48:26;;;;;;;13.68;1.65;;;;;;;;;;1038460;28;20029;-22
2023/04/14 02:49:04;;;;;;;2.45;1.17;;;;;;;;;;1039431;28;20043;-21
2023/04/14 02:49:41;;;;;;;3.03;1.85;;;;;;;;;;1035498;28;20585;-24
2023/04/14 02:50:14;;;;;;;12.00;2.08;;;;;;;;;;1039479;28;20080;-23
2023/04/14 02:50:46;;;;;;;1.48;1.02;;;;;;;;;;1041796;28;20043;-23
2023/04/14 02:51:18;;;;;;;5.40;2.05;;;;;;;;;;1042534;28;20148;-24
2023/04/14 02:51:51;;;;;;;2.00;0.82;;;;;;;;;;1043654;28;20475;-21
2023/04/14 02:52:23;;;;;;;11.40;2.42;;;;;;;;;;1040903;28;20033;-22
2023/04/14 02:52:54;;;;;;;2.28;1.88;;;;;;;;;;1042132;28;20029;-22
2023/04/14 02:53:26;;;;;;;5.57;2.42;;;;;;;;;;1039858;28;20477;-23
2023/04/14 02:53:57;;;;;;;5.03;2.25;;;;;;;;;;1036592;28;20484;-20
2023/04/14 02:54:29;;;;;;;3.80;1.85;;;;;;;;;;1039787;28;20033;-23
2023/04/14 02:55:03;;;;;;;6.97;1.50;;;;;;;;;;1035851;28;20049;-23
2023/04/14 02:55:34;;;;;;;1.77;1.00;;;;;;;;;;1038221;28;20098;-24
2023/04/14 02:56:05;;;;;;;2.88;1.27;;;;;;;;;;1037989;28;20384;-23
2023/04/14 02:56:36;;;;;;;2.33;1.48;;;;;;;;;;1038614;28;20028;-22
2023/04/14 02:57:07;;;;;;;3.42;1.83;;;;;;;;;;1040708;28;20020;-20
2023/04/14 02:57:39;;;;;;;7.10;2.58;;;;;;;;;;1042128;28;20066;-22
2023/04/14 02:58:09;;;;;;;11.32;2.78;;;;;;;;;;1038728;28;20036;-25
2023/04/14 02:58:40;;;;;;;5.22;1.52;;;;;;;;;;1044059;28;20143;-25
2023/04/14 02:59:12;;;;;;;1.65;1.13;;;;;;;;;;1041723;28;20036;-24
2023/04/14 02:59:45;;;;;;;7.10;1.20;;;;;;;;;;1043138;28;20047;-23
2023/04/14 03:00:17;;;;;;;1.50;1.00;;;;;;;;;;1037090;28;20021;-26
2023/04/14 03:00:52;;;;;;;1.35;0.52;;;;;;;;;;1039975;28;20028;-25
2023/04/14 03:01:25;;;;;;;2.72;1.20;;;;;;;;;;1036188;28;20041;-20
2023/04/14 03:02:00;;;;;;;3.15;1.58;;;;;;;;;;1037798;28;20030;-23
2023/04/14 03:02:40;;;;;;;7.10;1.23;;;;;;;;;;1036761;28;20033;-23
2023/04/14 03:03:22;;;;;;;2.75;1.35;;;;;;;;;;1037210;28;20029;-24
2023/04/14 03:03:59;;;;;;;4.07;1.85;;;;;;;;;;1032658;28;20041;-23
2023/04/14 03:04:35;;;;;;;4.63;3.10;;;;;;;;;;1028122;28;20036;-24
2023/04/14 03:05:09;;;;;;;8.05;1.92;;;;;;;;;;1035427;28;20037;-18
2023/04/14 03:05:40;;;;;;;5.20;2.47;;;;;;;;;;1030711;28;20232;-22
2023/04/14 03:06:14;;;;;;;2.38;1.48;;;;;;;;;;1037145;28;20125;-25
2023/04/14 03:06:47;;;;;;;5.03;1.35;;;;;;;;;;1035791;28;20041;-23
2023/04/14 03:07:21;;;;;;;2.95;2.00;;;;;;;;;;1030291;28;20038;-19
2023/04/14 03:07:55;;;;;;;4.32;3.45;;;;;;;;;;1033320;28;20037;-24
2023/04/14 03:08:27;;;;;;;5.60;1.75;;;;;;;;;;1029874;28;20590;-25
2023/04/14 03:08:59;;;;;;;4.57;1.67;;;;;;;;;;1033536;28;20120;-25
2023/04/14 03:09:31;;;;;;;8.15;2.58;;;;;;;;;;1034430;28;20457;-23
2023/04/14 03:10:03;;;;;;;7.32;1.52;;;;;;;;;;1036032;28;20033;-23
2023/04/14 03:10:35;;;;;;;4.75;0.60;;;;;;;;;;1038032;28;20087;-20
2023/04/14 03:11:08;;;;;;;6.68;2.80;;;;;;;;;;1039040;28;20044;-23
2023/04/14 03:11:43;;;;;;;3.78;2.60;;;;;;;;;;1036614;28;20452;-21
2023/04/14 03:12:14;;;;;;;3.15;2.45;;;;;;;;;;1029406;28;20496;-22
2023/04/14 03:12:48;;;;;;;10.18;2.47;;;;;;;;;;1037504;28;20203;-22
2023/04/14 03:13:23;;;;;;;8.80;1.80;;;;;;;;;;1036886;28;20377;-24
2023/04/14 03:13:58;;;;;;;7.35;2.63;;;;;;;;;;1030232;28;20017;-24
2023/04/14 03:14:32;;;;;;;0.95;0.75;;;;;;;;;;1034681;28;20029;-25
2023/04/14 03:15:09;;;;;;;8.90;1.80;;;;;;;;;;1039457;28;20428;-22
2023/04/14 03:15:55;;;;;;;3.65;1.00;;;;;;;;;;1042117;28;20103;-24
2023/04/14 03:16:29;;;;;;;11.43;1.98;;;;;;;;;;1028674;28;20021;-24
2023/04/14 03:17:04;;;;;;;3.05;1.20;;;;;;;;;;1039565;28;20052;-22
2023/04/14 03:17:37;;;;;;;11.85;1.13;;;;;;;;;;1028294;28;20026;-23
2023/04/14 03:18:08;;;;;;;2.53;2.33;;;;;;;;;;1027578;28;20089;-21